Time;durP1;ratioP1;P1;durP2;ratioP2;P2;SDS_P1;SDS_P2;PMS_P1;PMS_P2;Temp;Humidity;BMP_temperature;BMP_pressure;BME280_temperature;BME280_humidity;BME280_pressure;Samples;Min_cycle;Max_cycle;Signal;HPM_P1;HPM_P2
2021/05/30 00:00:36;;;;;;;1.40;0.60;;;18.30;99.90;;;;;;5066858;28;20398;-64
2021/05/30 00:03:01;;;;;;;0.50;0.43;;;18.30;99.90;;;;;;5065283;28;20082;-64
2021/05/30 00:05:28;;;;;;;0.50;0.40;;;18.30;99.90;;;;;;5065046;28;20048;-64
2021/05/30 00:07:55;;;;;;;0.50;0.50;;;18.20;99.90;;;;;;5066734;28;20036;-64
2021/05/30 00:10:20;;;;;;;0.63;0.40;;;18.20;99.90;;;;;;5066171;28;20064;-64
2021/05/30 00:12:46;;;;;;;0.57;0.50;;;18.10;99.90;;;;;;5065835;28;20052;-65
2021/05/30 00:15:12;;;;;;;0.55;0.55;;;18.00;99.90;;;;;;5065691;28;20032;-64
2021/05/30 00:17:38;;;;;;;0.52;0.52;;;18.10;99.90;;;;;;5066744;28;20082;-64
2021/05/30 00:20:07;;;;;;;0.85;0.65;;;18.00;99.90;;;;;;5066769;28;20024;-64
2021/05/30 00:22:34;;;;;;;0.40;0.40;;;17.90;99.90;;;;;;5067160;28;20066;-65
2021/05/30 00:25:00;;;;;;;0.57;0.57;;;17.90;99.90;;;;;;5066199;28;20045;-64
2021/05/30 00:27:26;;;;;;;0.55;0.52;;;17.90;99.90;;;;;;5065002;28;20024;-65
2021/05/30 00:29:53;;;;;;;1.40;1.00;;;18.00;99.90;;;;;;5066498;28;20095;-65
2021/05/30 00:32:19;;;;;;;1.40;1.10;;;17.90;99.90;;;;;;5066839;28;20788;-65
2021/05/30 00:34:46;;;;;;;1.85;1.20;;;17.90;99.90;;;;;;5066041;28;20095;-65
2021/05/30 00:37:11;;;;;;;2.15;1.38;;;17.70;99.90;;;;;;5065582;28;20031;-65
2021/05/30 00:39:37;;;;;;;2.90;1.17;;;17.70;99.90;;;;;;5066252;28;20451;-66
2021/05/30 00:42:03;;;;;;;1.77;1.10;;;17.80;99.90;;;;;;5066855;28;20028;-65
2021/05/30 00:44:30;;;;;;;1.77;1.13;;;17.80;99.90;;;;;;5065917;28;20025;-64
2021/05/30 00:46:57;;;;;;;1.90;1.10;;;17.90;99.90;;;;;;5063206;28;20028;-64
2021/05/30 00:49:26;;;;;;;1.83;1.02;;;17.80;99.90;;;;;;5065736;28;20079;-63
2021/05/30 00:51:52;;;;;;;2.00;1.15;;;17.80;99.90;;;;;;5065256;28;20050;-64
2021/05/30 00:54:18;;;;;;;1.40;1.00;;;17.70;99.90;;;;;;5065599;28;20029;-64
2021/05/30 00:56:45;;;;;;;0.80;0.80;;;17.70;99.90;;;;;;5064845;28;20035;-64
2021/05/30 00:59:12;;;;;;;1.13;0.95;;;17.70;99.90;;;;;;5066146;28;20078;-64
2021/05/30 01:01:40;;;;;;;1.02;0.80;;;17.60;99.90;;;;;;5065789;28;20029;-65
2021/05/30 01:04:06;;;;;;;0.90;0.65;;;17.70;99.90;;;;;;5066386;28;20028;-64
2021/05/30 01:06:34;;;;;;;0.73;0.60;;;17.60;99.90;;;;;;5065191;28;20471;-65
2021/05/30 01:09:03;;;;;;;1.63;0.85;;;17.60;99.90;;;;;;5065948;28;20052;-64
2021/05/30 01:11:31;;;;;;;0.90;0.60;;;17.50;99.90;;;;;;5065384;28;20055;-64
2021/05/30 01:13:58;;;;;;;0.90;0.80;;;17.50;99.90;;;;;;5065923;28;20025;-64
2021/05/30 01:16:25;;;;;;;0.65;0.63;;;17.40;99.90;;;;;;5064421;28;20028;-64
2021/05/30 01:18:54;;;;;;;0.63;0.63;;;17.30;99.90;;;;;;5065449;28;20065;-64
2021/05/30 01:21:21;;;;;;;0.50;0.50;;;17.20;99.90;;;;;;5064866;28;20024;-64
2021/05/30 01:23:51;;;;;;;0.80;0.80;;;17.20;99.90;;;;;;5064634;28;20129;-65
2021/05/30 01:26:17;;;;;;;0.98;0.75;;;17.10;99.90;;;;;;5064249;28;20509;-65
2021/05/30 01:28:43;;;;;;;0.60;0.60;;;16.90;99.90;;;;;;5065557;28;20028;-65
2021/05/30 01:31:10;;;;;;;0.73;0.60;;;16.80;99.90;;;;;;5064498;28;20024;-65
2021/05/30 01:33:35;;;;;;;0.80;0.70;;;16.70;99.90;;;;;;5065943;28;20025;-65
2021/05/30 01:36:01;;;;;;;0.80;0.50;;;16.70;99.90;;;;;;5064593;28;20031;-65
2021/05/30 01:38:28;;;;;;;0.70;0.70;;;16.70;99.90;;;;;;5064793;28;20040;-65
2021/05/30 01:40:55;;;;;;;0.65;0.50;;;16.80;99.90;;;;;;5063461;28;20047;-66
2021/05/30 01:43:21;;;;;;;1.40;0.60;;;16.70;99.90;;;;;;5065466;28;20038;-66
2021/05/30 01:45:46;;;;;;;0.50;0.50;;;16.80;99.90;;;;;;5064657;28;20410;-64
2021/05/30 01:48:13;;;;;;;1.35;0.70;;;16.70;99.90;;;;;;5064902;28;20067;-63
2021/05/30 01:50:40;;;;;;;0.60;0.60;;;16.70;99.90;;;;;;5063469;28;20031;-63
2021/05/30 01:53:08;;;;;;;0.80;0.70;;;16.70;99.90;;;;;;5066265;28;20027;-63
2021/05/30 01:55:48;;;;;;;0.60;0.60;;;16.60;99.90;;;;;;5065762;28;20091;-63
2021/05/30 01:58:15;;;;;;;0.65;0.50;;;16.70;99.90;;;;;;5065508;28;20029;-63
2021/05/30 02:00:41;;;;;;;1.35;0.77;;;16.70;99.90;;;;;;5063519;28;20028;-63
2021/05/30 02:03:08;;;;;;;0.60;0.60;;;16.60;99.90;;;;;;5064266;28;20025;-63
2021/05/30 02:05:35;;;;;;;1.27;0.80;;;16.80;99.90;;;;;;5067157;28;20052;-63
2021/05/30 02:08:01;;;;;;;0.60;0.60;;;16.80;99.90;;;;;;5065612;28;20102;-63
2021/05/30 02:10:28;;;;;;;0.77;0.52;;;16.70;99.90;;;;;;5066887;28;20036;-62
2021/05/30 02:12:55;;;;;;;1.38;0.63;;;16.70;99.90;;;;;;5066329;28;20032;-63
2021/05/30 02:15:22;;;;;;;1.13;0.68;;;16.70;99.90;;;;;;5066923;28;20044;-63
2021/05/30 02:17:48;;;;;;;1.88;0.80;;;16.70;99.90;;;;;;5065525;28;20040;-63
2021/05/30 02:20:15;;;;;;;0.68;0.68;;;16.70;99.90;;;;;;5066771;28;20029;-63
2021/05/30 02:22:41;;;;;;;0.50;0.50;;;16.60;99.90;;;;;;5066667;28;20020;-63
2021/05/30 02:25:11;;;;;;;0.80;0.70;;;16.70;99.90;;;;;;5067127;28;20451;-63
2021/05/30 02:27:38;;;;;;;1.10;0.80;;;16.80;99.90;;;;;;5065703;28;20082;-63
2021/05/30 02:30:05;;;;;;;0.77;0.77;;;16.90;99.90;;;;;;5067313;28;20020;-63
2021/05/30 02:32:31;;;;;;;0.68;0.68;;;17.00;99.90;;;;;;5066534;28;20090;-64
2021/05/30 02:34:57;;;;;;;0.93;0.70;;;16.80;99.90;;;;;;5066559;28;20499;-63
2021/05/30 02:37:22;;;;;;;1.67;0.82;;;16.90;99.90;;;;;;5066821;28;20032;-64
2021/05/30 02:39:48;;;;;;;1.38;0.93;;;16.80;99.90;;;;;;5063973;28;20064;-63
2021/05/30 02:42:14;;;;;;;1.10;0.80;;;16.90;99.90;;;;;;5066331;28;20028;-63
2021/05/30 02:44:40;;;;;;;2.10;1.10;;;16.60;99.90;;;;;;5066346;28;20032;-63
2021/05/30 02:47:06;;;;;;;0.85;0.80;;;16.50;99.90;;;;;;5067292;28;20020;-63
2021/05/30 02:49:33;;;;;;;1.15;0.75;;;16.30;99.90;;;;;;5065298;28;20036;-63
2021/05/30 02:52:02;;;;;;;0.68;0.60;;;16.10;99.90;;;;;;5066710;28;20036;-63
2021/05/30 02:54:28;;;;;;;1.55;0.70;;;16.00;99.90;;;;;;5065839;28;20055;-63
2021/05/30 02:56:54;;;;;;;1.45;0.60;;;15.80;99.90;;;;;;5066306;28;20453;-63
2021/05/30 02:59:19;;;;;;;0.70;0.60;;;15.90;99.90;;;;;;5065512;28;20441;-63
2021/05/30 03:01:45;;;;;;;0.77;0.68;;;15.70;99.90;;;;;;5065799;28;20017;-64
2021/05/30 03:04:11;;;;;;;1.10;0.80;;;15.70;99.90;;;;;;5066423;28;20083;-63
2021/05/30 03:06:37;;;;;;;0.70;0.70;;;15.70;99.90;;;;;;5065121;28;20029;-56
2021/05/30 03:09:03;;;;;;;0.50;0.50;;;15.80;99.90;;;;;;5065958;28;20056;-56
2021/05/30 03:11:30;;;;;;;1.15;1.05;;;15.70;99.90;;;;;;5065946;28;20123;-56
2021/05/30 03:13:57;;;;;;;0.50;0.50;;;15.60;99.90;;;;;;5066488;28;20074;-56
2021/05/30 03:16:24;;;;;;;0.60;0.60;;;15.40;99.90;;;;;;5066173;28;20024;-57
2021/05/30 03:18:49;;;;;;;1.50;0.60;;;15.40;99.90;;;;;;5064868;28;20391;-56
2021/05/30 03:21:16;;;;;;;1.08;0.60;;;15.50;99.90;;;;;;5066083;28;20036;-56
2021/05/30 03:23:42;;;;;;;0.68;0.63;;;15.50;99.90;;;;;;5066002;28;20055;-56
2021/05/30 03:26:08;;;;;;;0.93;0.70;;;15.50;99.90;;;;;;5066100;28;20071;-56
2021/05/30 03:28:34;;;;;;;1.00;0.50;;;15.40;99.90;;;;;;5066106;28;20119;-56
2021/05/30 03:31:00;;;;;;;0.80;0.80;;;15.30;99.90;;;;;;5065782;28;20052;-56
2021/05/30 03:33:26;;;;;;;0.50;0.50;;;15.30;99.90;;;;;;5065965;28;20021;-56
2021/05/30 03:35:55;;;;;;;1.02;0.93;;;15.30;99.90;;;;;;5065013;28;20066;-56
2021/05/30 03:38:22;;;;;;;0.50;0.50;;;15.30;99.90;;;;;;5064848;28;20024;-56
2021/05/30 03:40:51;;;;;;;0.55;0.50;;;15.30;99.90;;;;;;5065655;28;20028;-56
2021/05/30 03:43:17;;;;;;;1.27;0.70;;;15.20;99.90;;;;;;5065929;28;20033;-56
2021/05/30 03:45:43;;;;;;;0.75;0.70;;;15.20;99.90;;;;;;5065297;28;20049;-56
2021/05/30 03:48:09;;;;;;;0.57;0.57;;;15.10;99.90;;;;;;5064980;28;20052;-56
2021/05/30 03:50:35;;;;;;;0.57;0.57;;;15.10;99.90;;;;;;5066278;28;20055;-56
2021/05/30 03:53:01;;;;;;;0.90;0.60;;;15.00;99.90;;;;;;5065877;28;20056;-56
2021/05/30 03:55:27;;;;;;;0.75;0.70;;;14.90;99.90;;;;;;5068607;28;20024;-58
2021/05/30 03:57:54;;;;;;;0.60;0.60;;;14.80;99.90;;;;;;5068527;28;20762;-56
2021/05/30 04:00:20;;;;;;;0.68;0.68;;;14.80;99.90;;;;;;5068646;28;20024;-56
2021/05/30 04:02:47;;;;;;;0.70;0.70;;;14.80;99.90;;;;;;5067611;28;20036;-56
2021/05/30 04:05:15;;;;;;;0.60;0.60;;;14.80;99.90;;;;;;5069335;28;20124;-56
2021/05/30 04:07:41;;;;;;;0.52;0.52;;;14.70;99.90;;;;;;5068084;28;20052;-56
2021/05/30 04:10:12;;;;;;;0.52;0.50;;;14.70;99.90;;;;;;5068877;28;20024;-56
2021/05/30 04:12:42;;;;;;;0.93;0.65;;;14.70;99.90;;;;;;5069077;28;20016;-56
2021/05/30 04:15:10;;;;;;;1.02;0.80;;;14.70;99.90;;;;;;5069149;28;20036;-56
2021/05/30 04:17:36;;;;;;;0.73;0.50;;;14.70;99.90;;;;;;5069180;28;20029;-56
2021/05/30 04:20:04;;;;;;;0.80;0.60;;;14.90;99.90;;;;;;5068972;28;20033;-56
2021/05/30 04:22:30;;;;;;;0.50;0.50;;;14.90;99.90;;;;;;5068916;28;20110;-56
2021/05/30 04:24:55;;;;;;;3.22;0.57;;;14.90;99.90;;;;;;5068912;28;20458;-56
2021/05/30 04:27:21;;;;;;;0.63;0.63;;;14.90;99.90;;;;;;5068845;28;20032;-56
2021/05/30 04:29:47;;;;;;;1.25;0.60;;;15.10;99.90;;;;;;5067506;28;20033;-56
2021/05/30 04:32:12;;;;;;;0.55;0.55;;;15.10;99.90;;;;;;5068718;28;20024;-56
2021/05/30 04:34:38;;;;;;;0.88;0.43;;;15.00;99.90;;;;;;5068771;28;20036;-56
2021/05/30 04:37:04;;;;;;;0.60;0.60;;;15.00;99.90;;;;;;5069477;28;20403;-56
2021/05/30 04:39:32;;;;;;;0.57;0.57;;;14.90;99.90;;;;;;5067721;28;20036;-56
2021/05/30 04:42:02;;;;;;;0.50;0.50;;;14.80;99.90;;;;;;5067635;28;20029;-56
2021/05/30 04:44:28;;;;;;;0.75;0.50;;;14.90;99.90;;;;;;5068527;28;20033;-56
2021/05/30 04:46:54;;;;;;;0.60;0.60;;;14.90;99.90;;;;;;5068423;28;20031;-56
2021/05/30 04:49:20;;;;;;;0.63;0.57;;;14.90;99.90;;;;;;5067836;28;20043;-56
2021/05/30 04:51:45;;;;;;;0.75;0.60;;;14.90;99.90;;;;;;5068280;28;20374;-56
2021/05/30 04:54:11;;;;;;;0.70;0.60;;;14.90;99.90;;;;;;5068063;28;20415;-56
2021/05/30 04:56:37;;;;;;;0.55;0.55;;;15.00;99.90;;;;;;5068334;28;20052;-56
2021/05/30 04:59:02;;;;;;;0.73;0.70;;;15.00;99.90;;;;;;5067254;28;20020;-56
2021/05/30 05:01:28;;;;;;;0.73;0.70;;;15.00;99.90;;;;;;5067874;28;20498;-56
2021/05/30 05:03:54;;;;;;;0.80;0.80;;;15.00;99.90;;;;;;5068310;28;20112;-56
2021/05/30 05:06:19;;;;;;;0.70;0.70;;;15.10;99.90;;;;;;5068284;28;20064;-56
2021/05/30 05:08:47;;;;;;;0.63;0.60;;;15.10;99.90;;;;;;5067048;28;20371;-56
2021/05/30 05:11:13;;;;;;;0.60;0.60;;;15.20;99.90;;;;;;5067845;28;20043;-56
2021/05/30 05:13:39;;;;;;;0.50;0.50;;;15.30;99.90;;;;;;5067352;28;20020;-56
2021/05/30 05:16:05;;;;;;;1.15;0.45;;;15.40;99.90;;;;;;5068675;28;20090;-56
2021/05/30 05:18:32;;;;;;;1.05;0.60;;;15.30;99.90;;;;;;5066744;28;20444;-56
2021/05/30 05:20:59;;;;;;;0.60;0.50;;;15.20;99.90;;;;;;5067910;28;20660;-56
2021/05/30 05:23:26;;;;;;;2.05;0.70;;;15.40;99.90;;;;;;5067649;28;20035;-56
2021/05/30 05:25:57;;;;;;;0.73;0.60;;;15.20;99.90;;;;;;5067484;28;20191;-56
2021/05/30 05:28:23;;;;;;;0.70;0.70;;;15.40;99.90;;;;;;5066221;28;20021;-56
2021/05/30 05:30:50;;;;;;;0.77;0.50;;;15.40;99.90;;;;;;5067691;28;20024;-56
2021/05/30 05:33:16;;;;;;;0.50;0.50;;;15.30;99.90;;;;;;5066438;28;20103;-56
2021/05/30 05:35:42;;;;;;;0.68;0.50;;;15.20;99.90;;;;;;5067588;28;20133;-56
2021/05/30 05:38:08;;;;;;;0.50;0.50;;;15.30;99.90;;;;;;5067699;28;20448;-56
2021/05/30 05:40:34;;;;;;;0.95;0.45;;;15.40;99.90;;;;;;5066978;28;20028;-56
2021/05/30 05:43:00;;;;;;;0.47;0.47;;;15.40;99.90;;;;;;5065501;28;20037;-56
2021/05/30 05:45:26;;;;;;;0.57;0.57;;;15.40;99.90;;;;;;5067626;28;20456;-56
2021/05/30 05:47:52;;;;;;;0.60;0.40;;;15.30;99.90;;;;;;5067147;28;20523;-56
2021/05/30 05:50:21;;;;;;;0.60;0.60;;;15.20;99.90;;;;;;5066949;28;20482;-56
2021/05/30 05:52:48;;;;;;;0.40;0.40;;;15.40;99.90;;;;;;5067004;28;20035;-56
2021/05/30 05:55:14;;;;;;;0.55;0.50;;;15.50;99.90;;;;;;5068486;28;20021;-56
2021/05/30 05:57:41;;;;;;;0.90;0.60;;;15.40;99.90;;;;;;5065988;28;20032;-56
2021/05/30 06:00:09;;;;;;;0.47;0.47;;;15.50;99.90;;;;;;5066736;28;20036;-56
2021/05/30 06:02:36;;;;;;;0.50;0.50;;;15.50;99.90;;;;;;5067753;28;20051;-56
2021/05/30 06:05:03;;;;;;;0.70;0.55;;;15.50;99.90;;;;;;5067510;28;20397;-56
2021/05/30 06:07:29;;;;;;;0.50;0.50;;;15.70;99.90;;;;;;5064743;28;20395;-56
2021/05/30 06:09:54;;;;;;;0.50;0.50;;;15.60;99.90;;;;;;5065705;28;20029;-56
2021/05/30 06:12:21;;;;;;;0.40;0.40;;;15.70;99.90;;;;;;5067802;28;20024;-56
2021/05/30 06:14:46;;;;;;;0.55;0.55;;;15.70;99.90;;;;;;5066264;28;20028;-56
2021/05/30 06:17:13;;;;;;;0.45;0.45;;;15.80;99.90;;;;;;5066629;28;20497;-56
2021/05/30 06:19:39;;;;;;;0.90;0.50;;;15.80;99.90;;;;;;5066032;28;20111;-56
2021/05/30 06:22:05;;;;;;;0.70;0.70;;;15.90;99.90;;;;;;5067627;28;20128;-56
2021/05/30 06:24:35;;;;;;;0.55;0.55;;;16.00;99.90;;;;;;5065971;28;20086;-56
2021/05/30 06:27:03;;;;;;;1.40;0.70;;;15.90;99.90;;;;;;5066711;28;20025;-56
2021/05/30 06:29:29;;;;;;;0.60;0.60;;;16.10;99.90;;;;;;5065619;28;20565;-56
2021/05/30 06:31:55;;;;;;;0.50;0.50;;;16.10;99.90;;;;;;5066839;28;20024;-56
2021/05/30 06:34:21;;;;;;;0.63;0.63;;;16.00;99.90;;;;;;5066835;28;20570;-56
2021/05/30 06:36:48;;;;;;;0.98;0.77;;;16.10;99.90;;;;;;5066620;28;20029;-55
2021/05/30 06:39:14;;;;;;;0.43;0.43;;;16.30;99.90;;;;;;5064933;28;20020;-55
2021/05/30 06:41:40;;;;;;;0.50;0.50;;;16.40;99.90;;;;;;5066267;28;20090;-55
2021/05/30 06:44:06;;;;;;;0.60;0.60;;;16.30;99.90;;;;;;5067401;28;20498;-55
2021/05/30 06:46:34;;;;;;;0.73;0.63;;;16.50;99.90;;;;;;5055771;28;20028;-55
2021/05/30 06:49:00;;;;;;;0.50;0.50;;;16.40;99.90;;;;;;5063143;28;20039;-55
2021/05/30 06:51:30;;;;;;;0.57;0.50;;;16.30;99.90;;;;;;5063720;28;20029;-55
2021/05/30 06:53:57;;;;;;;0.80;0.60;;;16.30;99.90;;;;;;5066065;28;20059;-55
2021/05/30 06:56:23;;;;;;;0.65;0.57;;;16.40;99.90;;;;;;5065453;28;20039;-55
2021/05/30 06:58:48;;;;;;;0.70;0.70;;;16.30;99.90;;;;;;5066322;28;20024;-55
2021/05/30 07:01:16;;;;;;;0.52;0.50;;;16.20;99.90;;;;;;5064548;28;20024;-55
2021/05/30 07:03:42;;;;;;;0.70;0.60;;;16.10;99.90;;;;;;5066124;28;20035;-55
2021/05/30 07:06:08;;;;;;;0.68;0.52;;;16.30;99.90;;;;;;5066436;28;20040;-55
2021/05/30 07:08:34;;;;;;;0.77;0.73;;;16.50;99.90;;;;;;5066788;28;20017;-55
2021/05/30 07:11:00;;;;;;;0.50;0.50;;;16.60;99.90;;;;;;5065154;28;20136;-55
2021/05/30 07:13:26;;;;;;;1.80;0.50;;;16.80;99.90;;;;;;5062496;28;20116;-55
2021/05/30 07:15:53;;;;;;;0.50;0.50;;;16.90;99.90;;;;;;5064535;28;20564;-55
2021/05/30 07:18:20;;;;;;;0.60;0.60;;;16.90;99.90;;;;;;5066308;28;20025;-55
2021/05/30 07:20:47;;;;;;;1.20;0.75;;;16.60;99.90;;;;;;5066227;28;20613;-55
2021/05/30 07:23:13;;;;;;;1.00;0.77;;;16.40;99.90;;;;;;5064273;28;20024;-55
2021/05/30 07:25:39;;;;;;;1.63;0.60;;;16.50;99.90;;;;;;5064040;28;20063;-55
2021/05/30 07:28:05;;;;;;;0.50;0.50;;;16.60;99.90;;;;;;5064922;28;20812;-55
2021/05/30 07:30:32;;;;;;;0.50;0.50;;;16.60;99.90;;;;;;5068558;28;20111;-55
2021/05/30 07:32:57;;;;;;;0.40;0.40;;;16.50;99.90;;;;;;5068953;28;20043;-55
2021/05/30 07:35:24;;;;;;;0.52;0.52;;;16.50;99.90;;;;;;5070034;28;20040;-55
2021/05/30 07:37:49;;;;;;;1.35;0.47;;;16.60;99.90;;;;;;5069792;28;20020;-55
2021/05/30 07:40:17;;;;;;;0.60;0.43;;;16.90;99.90;;;;;;5069563;28;20085;-55
2021/05/30 07:42:45;;;;;;;0.60;0.50;;;17.00;99.90;;;;;;5067701;28;20028;-55
2021/05/30 07:45:12;;;;;;;0.50;0.40;;;17.20;99.90;;;;;;5068117;28;20040;-55
2021/05/30 07:47:38;;;;;;;0.57;0.50;;;17.20;99.90;;;;;;5067216;28;20597;-56
2021/05/30 07:50:05;;;;;;;0.60;0.60;;;17.00;99.90;;;;;;5070516;28;20032;-55
2021/05/30 07:52:30;;;;;;;1.27;0.93;;;17.00;99.90;;;;;;5064027;28;20020;-55
2021/05/30 07:54:56;;;;;;;0.57;0.57;;;17.00;99.90;;;;;;5064022;28;20036;-55
2021/05/30 07:57:22;;;;;;;0.30;0.30;;;17.00;99.90;;;;;;5061242;28;20032;-55
2021/05/30 07:59:47;;;;;;;0.68;0.50;;;17.00;99.90;;;;;;5061221;28;20033;-54
2021/05/30 08:02:13;;;;;;;0.63;0.60;;;17.10;99.90;;;;;;5065947;28;20036;-55
2021/05/30 08:04:39;;;;;;;0.40;0.40;;;17.10;99.90;;;;;;5064075;28;20052;-55
2021/05/30 08:07:05;;;;;;;0.68;0.68;;;17.30;99.90;;;;;;5064433;28;20020;-55
2021/05/30 08:09:30;;;;;;;0.55;0.50;;;17.40;99.90;;;;;;5065227;28;20384;-54
2021/05/30 08:11:58;;;;;;;0.75;0.60;;;17.40;99.90;;;;;;5063792;28;20032;-55
2021/05/30 08:14:24;;;;;;;0.60;0.60;;;17.40;99.90;;;;;;5063904;28;20544;-55
2021/05/30 08:16:50;;;;;;;0.50;0.50;;;17.30;99.90;;;;;;5064332;28;20027;-55
2021/05/30 08:19:16;;;;;;;0.75;0.60;;;17.50;99.90;;;;;;5064353;28;20475;-55
2021/05/30 08:21:43;;;;;;;0.63;0.50;;;17.40;99.90;;;;;;5064104;28;20025;-55
2021/05/30 08:24:09;;;;;;;0.55;0.52;;;17.60;99.90;;;;;;5064489;28;20097;-55
2021/05/30 08:26:35;;;;;;;0.60;0.60;;;17.70;99.90;;;;;;5064353;28;20037;-55
2021/05/30 08:29:01;;;;;;;1.00;0.73;;;17.60;99.90;;;;;;5065322;28;20028;-55
2021/05/30 08:31:26;;;;;;;0.60;0.60;;;17.70;99.90;;;;;;5063242;28;20139;-55
2021/05/30 08:33:52;;;;;;;0.70;0.70;;;17.60;99.90;;;;;;5065690;28;20040;-55
2021/05/30 08:36:19;;;;;;;0.65;0.52;;;17.70;99.90;;;;;;5064715;28;20029;-56
2021/05/30 08:38:44;;;;;;;0.60;0.60;;;17.80;99.90;;;;;;5058660;28;20606;-56
2021/05/30 08:41:11;;;;;;;0.68;0.68;;;18.00;99.90;;;;;;5059981;28;20104;-58
2021/05/30 08:43:37;;;;;;;0.90;0.60;;;18.00;99.90;;;;;;5060377;28;20144;-55
2021/05/30 08:46:03;;;;;;;0.60;0.60;;;18.10;99.90;;;;;;5063007;28;20017;-55
2021/05/30 08:48:28;;;;;;;0.47;0.47;;;18.10;99.90;;;;;;5061263;28;20522;-55
2021/05/30 08:51:06;;;;;;;0.80;0.77;;;18.20;99.90;;;;;;5061687;28;20020;-55
2021/05/30 08:53:37;;;;;;;0.82;0.60;;;18.00;99.90;;;;;;5057863;28;20049;-55
2021/05/30 08:56:05;;;;;;;1.02;0.60;;;17.80;99.90;;;;;;5067603;28;20032;-55
2021/05/30 08:58:40;;;;;;;0.85;0.50;;;17.90;99.90;;;;;;5065749;28;20083;-55
2021/05/30 09:01:20;;;;;;;1.08;0.52;;;17.80;99.90;;;;;;5064301;28;20029;-55
2021/05/30 09:03:52;;;;;;;0.70;0.70;;;17.70;99.90;;;;;;5066481;28;20457;-55
2021/05/30 09:06:19;;;;;;;0.50;0.50;;;17.70;99.90;;;;;;5057119;28;20048;-56
2021/05/30 09:08:45;;;;;;;1.48;0.75;;;17.90;99.90;;;;;;5049029;28;20032;-55
2021/05/30 09:11:11;;;;;;;0.60;0.60;;;17.70;99.90;;;;;;5063619;28;20622;-55
2021/05/30 09:14:01;;;;;;;1.00;0.73;;;17.70;99.90;;;;;;5064687;28;20384;-55
2021/05/30 09:16:47;;;;;;;0.50;0.50;;;17.70;99.90;;;;;;5067334;28;20028;-55
2021/05/30 09:19:37;;;;;;;0.50;0.50;;;17.90;99.90;;;;;;5081728;28;20413;-56
2021/05/30 09:22:39;;;;;;;0.63;0.55;;;17.90;99.90;;;;;;5083275;28;20101;-55
2021/05/30 09:25:05;;;;;;;0.60;0.60;;;17.90;99.90;;;;;;5019064;28;20504;-56
2021/05/30 09:27:32;;;;;;;0.60;0.60;;;17.90;99.90;;;;;;5055676;28;20037;-55
2021/05/30 09:30:22;;;;;;;0.60;0.50;;;18.20;99.90;;;;;;5060124;28;20044;-56
2021/05/30 09:32:56;;;;;;;0.65;0.50;;;18.10;99.90;;;;;;5054952;28;20455;-56
2021/05/30 09:35:24;;;;;;;0.60;0.60;;;18.30;99.90;;;;;;5076452;28;20571;-56
2021/05/30 09:38:06;;;;;;;1.00;0.90;;;18.40;99.90;;;;;;5054212;28;20032;-56
2021/05/30 09:40:37;;;;;;;1.58;0.95;;;18.30;99.90;;;;;;5059114;28;20033;-56
2021/05/30 09:43:17;;;;;;;1.02;0.85;;;18.20;99.90;;;;;;5065086;28;20032;-56
2021/05/30 09:46:12;;;;;;;0.50;0.50;;;18.40;99.90;;;;;;5047401;28;20033;-56
2021/05/30 09:48:47;;;;;;;0.40;0.40;;;18.50;99.90;;;;;;5046590;28;20427;-56
2021/05/30 09:51:33;;;;;;;0.60;0.60;;;18.70;99.90;;;;;;5053173;28;20028;-55
2021/05/30 09:54:01;;;;;;;0.65;0.63;;;18.70;99.90;;;;;;5065655;28;20016;-56
2021/05/30 09:56:30;;;;;;;0.57;0.57;;;18.70;99.90;;;;;;5066360;28;20032;-56
2021/05/30 09:58:57;;;;;;;0.40;0.40;;;18.70;99.90;;;;;;5063981;28;20388;-56
2021/05/30 10:01:25;;;;;;;0.32;0.32;;;18.90;99.90;;;;;;5063773;28;20047;-56
2021/05/30 10:03:53;;;;;;;0.60;0.50;;;19.00;99.90;;;;;;5066010;28;20062;-56
2021/05/30 10:06:19;;;;;;;0.77;0.60;;;19.20;99.90;;;;;;5064967;28;20036;-56
2021/05/30 10:08:47;;;;;;;0.80;0.50;;;19.10;99.90;;;;;;5067594;28;20032;-56
2021/05/30 10:11:16;;;;;;;0.73;0.50;;;19.10;99.90;;;;;;5068216;28;20036;-56
2021/05/30 10:13:42;;;;;;;1.75;0.60;;;19.20;99.90;;;;;;5067380;28;20483;-56
2021/05/30 10:16:08;;;;;;;0.70;0.70;;;19.30;99.90;;;;;;5067244;28;20045;-56
2021/05/30 10:18:37;;;;;;;0.50;0.50;;;19.60;99.90;;;;;;5066927;28;20020;-56
2021/05/30 10:21:04;;;;;;;0.98;0.50;;;19.40;99.90;;;;;;5067631;28;20058;-56
2021/05/30 10:23:31;;;;;;;0.40;0.40;;;19.40;99.90;;;;;;5060416;28;20021;-56
2021/05/30 10:26:20;;;;;;;0.60;0.60;;;19.40;99.90;;;;;;5061000;28;20086;-56
2021/05/30 10:28:58;;;;;;;0.68;0.68;;;19.60;99.90;;;;;;5059317;28;20110;-56
2021/05/30 10:31:33;;;;;;;1.88;0.77;;;19.50;99.90;;;;;;5061089;28;20453;-56
2021/05/30 10:34:13;;;;;;;;;;;19.70;99.90;;;;;;5060010;28;20074;-55
2021/05/30 10:36:45;;;;;;;0.98;0.80;;;19.70;99.90;;;;;;5061660;28;20001;-55
2021/05/30 10:39:29;;;;;;;0.68;0.68;;;19.70;99.90;;;;;;5059491;28;20124;-56
2021/05/30 10:42:15;;;;;;;1.55;1.02;;;19.80;99.90;;;;;;5059136;28;20431;-55
2021/05/30 10:44:57;;;;;;;1.35;1.05;;;19.90;99.90;;;;;;5066760;28;20123;-55
2021/05/30 10:47:42;;;;;;;1.05;0.70;;;20.00;99.90;;;;;;5061513;28;20020;-55
2021/05/30 10:50:09;;;;;;;1.27;0.80;;;20.20;99.90;;;;;;5060130;28;20028;-55
2021/05/30 10:52:37;;;;;;;1.05;0.80;;;20.30;99.90;;;;;;5060249;28;20478;-55
2021/05/30 10:55:18;;;;;;;0.73;0.70;;;20.40;99.90;;;;;;5060779;28;20082;-55
2021/05/30 10:57:46;;;;;;;0.65;0.60;;;20.40;99.50;;;;;;5061561;28;20036;-55
2021/05/30 11:00:21;;;;;;;1.05;0.88;;;20.40;99.30;;;;;;5059880;28;20854;-55
2021/05/30 11:05:49;;;;;;;0.73;0.73;;;20.40;98.80;;;;;;5058818;28;20115;-55
2021/05/30 11:08:30;;;;;;;2.92;0.70;;;20.40;99.60;;;;;;5059431;28;20483;-56
2021/05/30 11:11:11;;;;;;;0.75;0.75;;;20.70;99.90;;;;;;5060236;28;20032;-55
2021/05/30 11:13:56;;;;;;;0.82;0.60;;;20.80;99.90;;;;;;5061752;28;20024;-55
2021/05/30 11:16:27;;;;;;;0.70;0.70;;;21.20;99.90;;;;;;5066291;28;20040;-55
2021/05/30 11:19:05;;;;;;;0.88;0.70;;;21.00;99.90;;;;;;5057632;28;20066;-55
2021/05/30 11:21:31;;;;;;;0.98;0.82;;;20.90;99.90;;;;;;5066377;28;20032;-55
2021/05/30 11:23:59;;;;;;;0.88;0.70;;;21.10;99.90;;;;;;5057065;28;20047;-55
2021/05/30 11:26:25;;;;;;;0.50;0.50;;;21.40;99.90;;;;;;5054450;28;20025;-55
2021/05/30 11:28:51;;;;;;;0.40;0.40;;;21.50;99.90;;;;;;5046805;28;20098;-55
2021/05/30 11:31:18;;;;;;;0.40;0.40;;;21.60;99.80;;;;;;5047320;28;20025;-55
2021/05/30 11:33:55;;;;;;;0.40;0.40;;;21.70;99.90;;;;;;5062662;28;20503;-55
2021/05/30 11:36:42;;;;;;;0.60;0.60;;;22.00;99.20;;;;;;5060592;28;20395;-55
2021/05/30 11:39:18;;;;;;;0.50;0.50;;;21.90;98.40;;;;;;5060690;28;20111;-55
2021/05/30 11:41:55;;;;;;;0.82;0.70;;;21.90;99.50;;;;;;5056168;28;20056;-55
2021/05/30 11:44:24;;;;;;;0.50;0.50;;;22.10;99.50;;;;;;5062220;28;20055;-57
2021/05/30 11:46:52;;;;;;;0.60;0.50;;;22.20;98.30;;;;;;5063483;28;20853;-57
2021/05/30 11:49:31;;;;;;;0.85;0.60;;;22.50;98.70;;;;;;5066597;28;20077;-57
2021/05/30 11:52:00;;;;;;;1.38;0.90;;;22.80;99.40;;;;;;5065118;28;20039;-57
2021/05/30 11:54:29;;;;;;;1.10;0.90;;;22.90;99.60;;;;;;5063474;28;20029;-57
2021/05/30 11:56:58;;;;;;;1.63;1.10;;;23.00;98.90;;;;;;5066114;28;20040;-57
2021/05/30 11:59:34;;;;;;;2.47;1.45;;;23.20;99.00;;;;;;5050078;28;20040;-56
2021/05/30 12:02:00;;;;;;;2.78;1.13;;;23.10;98.90;;;;;;5063105;28;20028;-57
2021/05/30 12:04:30;;;;;;;3.13;1.48;;;23.40;98.70;;;;;;5066557;28;20042;-57
2021/05/30 12:06:56;;;;;;;2.10;1.70;;;23.50;99.00;;;;;;5066474;28;20502;-56
2021/05/30 12:09:22;;;;;;;1.27;1.00;;;23.40;98.20;;;;;;5062053;28;20024;-57
2021/05/30 12:11:49;;;;;;;1.95;1.50;;;23.60;97.80;;;;;;5067163;28;20033;-57
2021/05/30 12:14:15;;;;;;;2.33;1.55;;;23.70;98.30;;;;;;5065820;28;20071;-56
2021/05/30 12:16:41;;;;;;;1.30;1.17;;;23.50;97.30;;;;;;5074904;28;20036;-57
2021/05/30 12:19:07;;;;;;;2.38;1.40;;;23.90;97.90;;;;;;5071732;28;20029;-57
2021/05/30 12:21:41;;;;;;;3.25;1.70;;;24.20;97.90;;;;;;5069253;28;20020;-56
2021/05/30 12:24:08;;;;;;;3.15;2.60;;;24.00;97.00;;;;;;5072569;28;20032;-57
2021/05/30 12:26:35;;;;;;;2.85;2.50;;;23.90;97.10;;;;;;5068415;28;20028;-57
2021/05/30 12:29:01;;;;;;;3.55;2.35;;;24.30;97.60;;;;;;5069399;28;20399;-55
2021/05/30 12:31:27;;;;;;;2.42;2.22;;;24.80;97.70;;;;;;5065313;28;20073;-56
2021/05/30 12:34:09;;;;;;;1.90;1.63;;;24.90;97.00;;;;;;5061502;28;20020;-55
2021/05/30 12:36:55;;;;;;;2.17;1.80;;;24.40;96.10;;;;;;5058504;28;20029;-56
2021/05/30 12:39:25;;;;;;;1.50;1.33;;;24.60;95.40;;;;;;5065048;28;20541;-55
2021/05/30 12:42:04;;;;;;;1.50;1.05;;;24.70;95.60;;;;;;5067894;28;20021;-56
2021/05/30 12:44:44;;;;;;;1.92;0.95;;;24.80;95.30;;;;;;5058531;28;20031;-56
2021/05/30 12:47:22;;;;;;;0.82;0.70;;;25.20;95.60;;;;;;5052305;28;20487;-56
2021/05/30 12:49:59;;;;;;;0.57;0.57;;;25.40;95.40;;;;;;5060994;28;20509;-56
2021/05/30 12:52:27;;;;;;;0.77;0.70;;;25.40;95.20;;;;;;5048748;28;20104;-56
2021/05/30 12:54:59;;;;;;;0.60;0.60;;;25.40;95.60;;;;;;5057372;28;20513;-56
2021/05/30 12:57:38;;;;;;;0.60;0.60;;;25.70;95.20;;;;;;5061872;28;20092;-56